< < Back
Terminal Aerodrome Forecast


Current Version              Previous Versions:   1  2  3  4  5  6  7  8  9  

Terminal Aerodrome Forecast

857
FTUS42 KMLB 291732
TAFMCO
TAF
KMCO 291732Z 2918/3018 07011G17KT P6SM VCSH SCT025 BKN080
      TEMPO 2919/2922 TS BKN025CB BKN050
     FM300000 06007KT P6SM SCT030 SCT100 BKN250
     FM301500 10008KT P6SM VCSH SCT035 BKN100=

Latest METAR

572
SAUS70 KWBC 291800 RRJ
MTRMCO
METAR KMCO 291753Z 05013KT 7SM TS FEW019 BKN040CB BKN110 27/24 A2996 RMK
AO2 WSHFT 1654 LTG DSNT S AND SW RAB23E53 TSB04 SLP145 OCNL
LTGIC NE TS NE MOV W CB NW MOV W P0027 60038 T02720244 10311
20261 55003 $


USA.gov is the U.S. government's official web portal to all federal, state and local government web resources and services.